sensor_id;sensor_type;location;lat;lon;timestamp;P1;durP1;ratioP1;P2;durP2;ratioP2
38609;SDS011;24367;51.640;9.566;2022-12-07T00:00:44;4.95;;;3.72;;
38609;SDS011;24367;51.640;9.566;2022-12-07T00:03:11;4.80;;;3.40;;
38609;SDS011;24367;51.640;9.566;2022-12-07T00:05:37;4.57;;;3.25;;
38609;SDS011;24367;51.640;9.566;2022-12-07T00:08:04;4.10;;;3.15;;
38609;SDS011;24367;51.640;9.566;2022-12-07T00:10:32;4.40;;;3.30;;
38609;SDS011;24367;51.640;9.566;2022-12-07T00:12:59;3.80;;;3.00;;
38609;SDS011;24367;51.640;9.566;2022-12-07T00:15:25;4.00;;;2.90;;
38609;SDS011;24367;51.640;9.566;2022-12-07T00:17:53;3.75;;;2.90;;
38609;SDS011;24367;51.640;9.566;2022-12-07T00:20:20;3.60;;;3.03;;
38609;SDS011;24367;51.640;9.566;2022-12-07T00:22:47;4.80;;;3.40;;
38609;SDS011;24367;51.640;9.566;2022-12-07T00:25:13;4.65;;;3.25;;
38609;SDS011;24367;51.640;9.566;2022-12-07T00:27:40;4.07;;;3.28;;
38609;SDS011;24367;51.640;9.566;2022-12-07T00:30:06;5.03;;;3.15;;
38609;SDS011;24367;51.640;9.566;2022-12-07T00:32:34;3.60;;;3.00;;
38609;SDS011;24367;51.640;9.566;2022-12-07T00:35:01;3.95;;;3.22;;
38609;SDS011;24367;51.640;9.566;2022-12-07T00:37:28;4.38;;;2.97;;
38609;SDS011;24367;51.640;9.566;2022-12-07T00:39:54;3.67;;;3.15;;
38609;SDS011;24367;51.640;9.566;2022-12-07T00:42:21;3.80;;;3.13;;
38609;SDS011;24367;51.640;9.566;2022-12-07T00:44:47;3.67;;;2.70;;
38609;SDS011;24367;51.640;9.566;2022-12-07T00:47:14;4.00;;;2.95;;
38609;SDS011;24367;51.640;9.566;2022-12-07T00:49:40;4.25;;;2.88;;
38609;SDS011;24367;51.640;9.566;2022-12-07T00:52:08;4.05;;;2.75;;
38609;SDS011;24367;51.640;9.566;2022-12-07T00:54:35;3.92;;;3.00;;
38609;SDS011;24367;51.640;9.566;2022-12-07T00:57:01;3.80;;;2.75;;
38609;SDS011;24367;51.640;9.566;2022-12-07T00:59:28;4.25;;;3.17;;
38609;SDS011;24367;51.640;9.566;2022-12-07T01:01:54;3.70;;;2.75;;
38609;SDS011;24367;51.640;9.566;2022-12-07T01:04:21;3.83;;;2.88;;
38609;SDS011;24367;51.640;9.566;2022-12-07T01:06:47;3.50;;;2.70;;
38609;SDS011;24367;51.640;9.566;2022-12-07T01:09:15;4.07;;;2.95;;
38609;SDS011;24367;51.640;9.566;2022-12-07T01:11:42;3.80;;;2.75;;
38609;SDS011;24367;51.640;9.566;2022-12-07T01:14:08;3.28;;;2.47;;
38609;SDS011;24367;51.640;9.566;2022-12-07T01:16:35;3.80;;;2.80;;
38609;SDS011;24367;51.640;9.566;2022-12-07T01:19:02;3.40;;;2.58;;
38609;SDS011;24367;51.640;9.566;2022-12-07T01:21:30;3.85;;;2.88;;
38609;SDS011;24367;51.640;9.566;2022-12-07T01:23:59;3.95;;;2.80;;
38609;SDS011;24367;51.640;9.566;2022-12-07T01:26:27;3.40;;;2.67;;
38609;SDS011;24367;51.640;9.566;2022-12-07T01:28:54;3.17;;;2.70;;
38609;SDS011;24367;51.640;9.566;2022-12-07T01:31:24;3.88;;;3.10;;
38609;SDS011;24367;51.640;9.566;2022-12-07T01:33:54;4.10;;;2.97;;
38609;SDS011;24367;51.640;9.566;2022-12-07T01:36:22;3.70;;;2.70;;
38609;SDS011;24367;51.640;9.566;2022-12-07T01:38:53;3.60;;;2.47;;
38609;SDS011;24367;51.640;9.566;2022-12-07T01:41:21;3.28;;;2.50;;
38609;SDS011;24367;51.640;9.566;2022-12-07T01:46:37;3.15;;;2.55;;
38609;SDS011;24367;51.640;9.566;2022-12-07T01:49:04;3.15;;;2.33;;
38609;SDS011;24367;51.640;9.566;2022-12-07T01:51:32;3.53;;;2.53;;
38609;SDS011;24367;51.640;9.566;2022-12-07T01:53:59;3.42;;;2.50;;
38609;SDS011;24367;51.640;9.566;2022-12-07T01:56:27;4.25;;;2.33;;
38609;SDS011;24367;51.640;9.566;2022-12-07T01:58:54;2.90;;;2.20;;
38609;SDS011;24367;51.640;9.566;2022-12-07T02:01:22;2.97;;;2.22;;
38609;SDS011;24367;51.640;9.566;2022-12-07T02:03:49;4.13;;;2.42;;
38609;SDS011;24367;51.640;9.566;2022-12-07T02:06:17;3.47;;;2.65;;
38609;SDS011;24367;51.640;9.566;2022-12-07T02:08:45;3.20;;;2.50;;
38609;SDS011;24367;51.640;9.566;2022-12-07T02:11:12;2.88;;;2.20;;
38609;SDS011;24367;51.640;9.566;2022-12-07T02:13:39;3.30;;;2.65;;
38609;SDS011;24367;51.640;9.566;2022-12-07T02:16:13;2.92;;;2.10;;
38609;SDS011;24367;51.640;9.566;2022-12-07T02:18:51;2.92;;;2.10;;
38609;SDS011;24367;51.640;9.566;2022-12-07T02:21:29;3.30;;;2.38;;
38609;SDS011;24367;51.640;9.566;2022-12-07T02:26:51;3.65;;;2.35;;
38609;SDS011;24367;51.640;9.566;2022-12-07T02:29:36;3.00;;;2.40;;
38609;SDS011;24367;51.640;9.566;2022-12-07T02:32:06;3.03;;;2.13;;
38609;SDS011;24367;51.640;9.566;2022-12-07T02:34:39;3.53;;;2.28;;
38609;SDS011;24367;51.640;9.566;2022-12-07T02:37:10;3.65;;;2.65;;
38609;SDS011;24367;51.640;9.566;2022-12-07T02:42:12;3.10;;;2.25;;
38609;SDS011;24367;51.640;9.566;2022-12-07T02:44:42;3.10;;;2.20;;
38609;SDS011;24367;51.640;9.566;2022-12-07T02:47:10;3.28;;;2.25;;
38609;SDS011;24367;51.640;9.566;2022-12-07T02:49:39;3.17;;;2.17;;
38609;SDS011;24367;51.640;9.566;2022-12-07T02:52:06;3.20;;;2.40;;
38609;SDS011;24367;51.640;9.566;2022-12-07T02:54:32;2.75;;;1.90;;
38609;SDS011;24367;51.640;9.566;2022-12-07T02:57:00;2.90;;;2.30;;
38609;SDS011;24367;51.640;9.566;2022-12-07T02:59:34;3.03;;;2.15;;
38609;SDS011;24367;51.640;9.566;2022-12-07T03:02:10;2.88;;;2.15;;
38609;SDS011;24367;51.640;9.566;2022-12-07T03:04:45;2.80;;;1.92;;
38609;SDS011;24367;51.640;9.566;2022-12-07T03:07:21;3.03;;;2.20;;
38609;SDS011;24367;51.640;9.566;2022-12-07T03:09:53;2.92;;;2.17;;
38609;SDS011;24367;51.640;9.566;2022-12-07T03:12:25;2.60;;;1.95;;
38609;SDS011;24367;51.640;9.566;2022-12-07T03:14:55;2.85;;;1.98;;
38609;SDS011;24367;51.640;9.566;2022-12-07T03:17:27;3.65;;;2.55;;
38609;SDS011;24367;51.640;9.566;2022-12-07T03:19:56;3.10;;;2.20;;
38609;SDS011;24367;51.640;9.566;2022-12-07T03:22:24;2.83;;;1.92;;
38609;SDS011;24367;51.640;9.566;2022-12-07T03:24:55;2.67;;;1.92;;
38609;SDS011;24367;51.640;9.566;2022-12-07T03:27:23;3.28;;;2.22;;
38609;SDS011;24367;51.640;9.566;2022-12-07T03:29:53;2.97;;;1.90;;
38609;SDS011;24367;51.640;9.566;2022-12-07T03:32:22;2.50;;;1.80;;
38609;SDS011;24367;51.640;9.566;2022-12-07T03:34:54;2.92;;;1.90;;
38609;SDS011;24367;51.640;9.566;2022-12-07T03:37:26;2.67;;;1.83;;
38609;SDS011;24367;51.640;9.566;2022-12-07T03:39:57;2.70;;;1.92;;
38609;SDS011;24367;51.640;9.566;2022-12-07T03:42:26;2.85;;;2.00;;
38609;SDS011;24367;51.640;9.566;2022-12-07T03:44:53;2.88;;;1.90;;
38609;SDS011;24367;51.640;9.566;2022-12-07T03:47:20;2.60;;;1.73;;
38609;SDS011;24367;51.640;9.566;2022-12-07T03:49:55;2.85;;;2.00;;
38609;SDS011;24367;51.640;9.566;2022-12-07T03:52:24;2.67;;;1.67;;
38609;SDS011;24367;51.640;9.566;2022-12-07T03:54:56;3.00;;;2.15;;
38609;SDS011;24367;51.640;9.566;2022-12-07T03:57:25;2.78;;;1.80;;
38609;SDS011;24367;51.640;9.566;2022-12-07T03:59:53;3.63;;;1.88;;
38609;SDS011;24367;51.640;9.566;2022-12-07T04:02:21;2.60;;;1.90;;
38609;SDS011;24367;51.640;9.566;2022-12-07T04:04:48;2.63;;;1.70;;
38609;SDS011;24367;51.640;9.566;2022-12-07T04:07:16;2.85;;;2.00;;
38609;SDS011;24367;51.640;9.566;2022-12-07T04:09:43;2.60;;;1.80;;
38609;SDS011;24367;51.640;9.566;2022-12-07T04:12:09;2.55;;;1.70;;
38609;SDS011;24367;51.640;9.566;2022-12-07T04:14:36;2.70;;;1.70;;
38609;SDS011;24367;51.640;9.566;2022-12-07T04:17:02;3.13;;;1.70;;
38609;SDS011;24367;51.640;9.566;2022-12-07T04:19:30;2.30;;;1.80;;
38609;SDS011;24367;51.640;9.566;2022-12-07T04:21:58;2.30;;;1.73;;
38609;SDS011;24367;51.640;9.566;2022-12-07T04:24:27;2.50;;;1.80;;
38609;SDS011;24367;51.640;9.566;2022-12-07T04:26:54;2.53;;;1.77;;
38609;SDS011;24367;51.640;9.566;2022-12-07T04:29:20;2.53;;;1.55;;
38609;SDS011;24367;51.640;9.566;2022-12-07T04:31:47;2.97;;;1.85;;
38609;SDS011;24367;51.640;9.566;2022-12-07T04:34:14;2.65;;;1.90;;
38609;SDS011;24367;51.640;9.566;2022-12-07T04:36:41;2.47;;;1.67;;
38609;SDS011;24367;51.640;9.566;2022-12-07T04:39:09;2.53;;;1.63;;
38609;SDS011;24367;51.640;9.566;2022-12-07T04:41:46;2.28;;;1.50;;
38609;SDS011;24367;51.640;9.566;2022-12-07T04:44:14;2.78;;;1.60;;
38609;SDS011;24367;51.640;9.566;2022-12-07T04:46:41;1.83;;;1.23;;
38609;SDS011;24367;51.640;9.566;2022-12-07T04:49:08;2.50;;;1.50;;
38609;SDS011;24367;51.640;9.566;2022-12-07T04:51:35;2.55;;;1.55;;
38609;SDS011;24367;51.640;9.566;2022-12-07T04:54:02;2.03;;;1.45;;
38609;SDS011;24367;51.640;9.566;2022-12-07T04:56:29;1.90;;;1.42;;
38609;SDS011;24367;51.640;9.566;2022-12-07T04:58:57;2.30;;;1.45;;
38609;SDS011;24367;51.640;9.566;2022-12-07T05:01:23;1.95;;;1.40;;
38609;SDS011;24367;51.640;9.566;2022-12-07T05:03:50;2.30;;;1.50;;
38609;SDS011;24367;51.640;9.566;2022-12-07T05:06:17;2.58;;;1.65;;
38609;SDS011;24367;51.640;9.566;2022-12-07T05:08:43;2.55;;;1.80;;
38609;SDS011;24367;51.640;9.566;2022-12-07T05:11:10;2.38;;;1.58;;
38609;SDS011;24367;51.640;9.566;2022-12-07T05:14:00;2.05;;;1.40;;
38609;SDS011;24367;51.640;9.566;2022-12-07T05:16:26;2.20;;;1.55;;
38609;SDS011;24367;51.640;9.566;2022-12-07T05:18:53;2.10;;;1.40;;
38609;SDS011;24367;51.640;9.566;2022-12-07T05:21:20;2.45;;;1.90;;
38609;SDS011;24367;51.640;9.566;2022-12-07T05:23:46;2.55;;;1.77;;
38609;SDS011;24367;51.640;9.566;2022-12-07T05:26:13;2.22;;;1.30;;
38609;SDS011;24367;51.640;9.566;2022-12-07T05:28:40;2.17;;;1.60;;
38609;SDS011;24367;51.640;9.566;2022-12-07T05:31:08;2.28;;;1.50;;
38609;SDS011;24367;51.640;9.566;2022-12-07T05:33:34;1.92;;;1.45;;
38609;SDS011;24367;51.640;9.566;2022-12-07T05:36:01;2.28;;;1.30;;
38609;SDS011;24367;51.640;9.566;2022-12-07T05:38:30;1.83;;;1.25;;
38609;SDS011;24367;51.640;9.566;2022-12-07T05:40:59;1.80;;;1.30;;
38609;SDS011;24367;51.640;9.566;2022-12-07T05:43:27;2.17;;;1.45;;
38609;SDS011;24367;51.640;9.566;2022-12-07T05:45:53;2.20;;;1.30;;
38609;SDS011;24367;51.640;9.566;2022-12-07T05:48:21;2.10;;;1.33;;
38609;SDS011;24367;51.640;9.566;2022-12-07T05:50:48;2.08;;;1.30;;
38609;SDS011;24367;51.640;9.566;2022-12-07T05:53:14;2.03;;;1.40;;
38609;SDS011;24367;51.640;9.566;2022-12-07T05:55:41;2.13;;;1.38;;
38609;SDS011;24367;51.640;9.566;2022-12-07T05:58:08;2.00;;;1.40;;
38609;SDS011;24367;51.640;9.566;2022-12-07T06:00:53;3.05;;;1.55;;
38609;SDS011;24367;51.640;9.566;2022-12-07T06:03:21;1.88;;;1.10;;
38609;SDS011;24367;51.640;9.566;2022-12-07T06:05:48;2.13;;;1.38;;
38609;SDS011;24367;51.640;9.566;2022-12-07T06:08:15;2.80;;;1.80;;
38609;SDS011;24367;51.640;9.566;2022-12-07T06:10:41;3.58;;;1.80;;
38609;SDS011;24367;51.640;9.566;2022-12-07T06:13:08;3.22;;;1.80;;
38609;SDS011;24367;51.640;9.566;2022-12-07T06:15:35;3.75;;;1.42;;
38609;SDS011;24367;51.640;9.566;2022-12-07T06:18:02;5.20;;;1.67;;
38609;SDS011;24367;51.640;9.566;2022-12-07T06:20:30;2.42;;;1.63;;
38609;SDS011;24367;51.640;9.566;2022-12-07T06:22:56;2.65;;;1.35;;
38609;SDS011;24367;51.640;9.566;2022-12-07T06:25:23;5.38;;;1.60;;
38609;SDS011;24367;51.640;9.566;2022-12-07T06:27:49;3.13;;;1.65;;
38609;SDS011;24367;51.640;9.566;2022-12-07T06:30:16;4.00;;;1.15;;
38609;SDS011;24367;51.640;9.566;2022-12-07T06:32:43;2.35;;;1.40;;
38609;SDS011;24367;51.640;9.566;2022-12-07T06:35:09;1.95;;;1.30;;
38609;SDS011;24367;51.640;9.566;2022-12-07T06:37:37;3.10;;;1.40;;
38609;SDS011;24367;51.640;9.566;2022-12-07T06:40:04;3.60;;;1.65;;
38609;SDS011;24367;51.640;9.566;2022-12-07T06:42:32;2.78;;;1.25;;
38609;SDS011;24367;51.640;9.566;2022-12-07T06:44:58;5.55;;;1.40;;
38609;SDS011;24367;51.640;9.566;2022-12-07T06:47:25;2.42;;;1.35;;
38609;SDS011;24367;51.640;9.566;2022-12-07T06:49:51;3.75;;;1.60;;
38609;SDS011;24367;51.640;9.566;2022-12-07T06:52:18;4.22;;;1.58;;
38609;SDS011;24367;51.640;9.566;2022-12-07T06:54:46;2.97;;;1.73;;
38609;SDS011;24367;51.640;9.566;2022-12-07T06:57:12;2.75;;;1.48;;
38609;SDS011;24367;51.640;9.566;2022-12-07T06:59:39;3.45;;;1.50;;
38609;SDS011;24367;51.640;9.566;2022-12-07T07:02:05;3.72;;;1.30;;
38609;SDS011;24367;51.640;9.566;2022-12-07T07:04:32;3.13;;;1.35;;
38609;SDS011;24367;51.640;9.566;2022-12-07T07:06:59;2.05;;;1.20;;
38609;SDS011;24367;51.640;9.566;2022-12-07T07:09:25;3.28;;;1.58;;
38609;SDS011;24367;51.640;9.566;2022-12-07T07:11:53;2.45;;;1.15;;
38609;SDS011;24367;51.640;9.566;2022-12-07T07:14:20;3.30;;;1.20;;
38609;SDS011;24367;51.640;9.566;2022-12-07T07:16:47;1.98;;;1.30;;
38609;SDS011;24367;51.640;9.566;2022-12-07T07:19:13;1.85;;;1.20;;
38609;SDS011;24367;51.640;9.566;2022-12-07T07:21:40;3.00;;;1.45;;
38609;SDS011;24367;51.640;9.566;2022-12-07T07:24:06;2.17;;;1.17;;
38609;SDS011;24367;51.640;9.566;2022-12-07T07:26:33;2.72;;;1.38;;
38609;SDS011;24367;51.640;9.566;2022-12-07T07:29:01;3.95;;;1.50;;
38609;SDS011;24367;51.640;9.566;2022-12-07T07:31:28;3.13;;;1.48;;
38609;SDS011;24367;51.640;9.566;2022-12-07T07:33:54;2.47;;;1.48;;
38609;SDS011;24367;51.640;9.566;2022-12-07T07:36:21;2.85;;;1.38;;
38609;SDS011;24367;51.640;9.566;2022-12-07T07:38:47;2.22;;;1.20;;
38609;SDS011;24367;51.640;9.566;2022-12-07T07:41:14;3.10;;;1.48;;
38609;SDS011;24367;51.640;9.566;2022-12-07T07:43:41;3.72;;;1.27;;
38609;SDS011;24367;51.640;9.566;2022-12-07T07:46:08;4.32;;;1.52;;
38609;SDS011;24367;51.640;9.566;2022-12-07T07:48:35;6.25;;;1.48;;
38609;SDS011;24367;51.640;9.566;2022-12-07T07:51:04;5.93;;;1.50;;
38609;SDS011;24367;51.640;9.566;2022-12-07T07:53:31;5.97;;;1.30;;
38609;SDS011;24367;51.640;9.566;2022-12-07T07:55:58;6.10;;;1.67;;
38609;SDS011;24367;51.640;9.566;2022-12-07T07:58:24;4.20;;;1.38;;
38609;SDS011;24367;51.640;9.566;2022-12-07T08:00:51;3.38;;;1.25;;
38609;SDS011;24367;51.640;9.566;2022-12-07T08:03:19;4.75;;;1.48;;
38609;SDS011;24367;51.640;9.566;2022-12-07T08:05:46;4.93;;;1.23;;
38609;SDS011;24367;51.640;9.566;2022-12-07T08:08:13;3.60;;;1.10;;
38609;SDS011;24367;51.640;9.566;2022-12-07T08:10:39;6.70;;;1.65;;
38609;SDS011;24367;51.640;9.566;2022-12-07T08:13:06;3.88;;;1.27;;
38609;SDS011;24367;51.640;9.566;2022-12-07T08:15:40;3.45;;;1.40;;
38609;SDS011;24367;51.640;9.566;2022-12-07T08:18:07;2.63;;;1.15;;
38609;SDS011;24367;51.640;9.566;2022-12-07T08:20:35;3.00;;;1.27;;
38609;SDS011;24367;51.640;9.566;2022-12-07T08:23:03;3.10;;;1.30;;
38609;SDS011;24367;51.640;9.566;2022-12-07T08:25:30;9.23;;;1.27;;
38609;SDS011;24367;51.640;9.566;2022-12-07T08:27:56;2.72;;;1.20;;
38609;SDS011;24367;51.640;9.566;2022-12-07T08:30:23;3.58;;;1.00;;
38609;SDS011;24367;51.640;9.566;2022-12-07T08:32:49;2.83;;;1.25;;
38609;SDS011;24367;51.640;9.566;2022-12-07T08:35:16;4.80;;;1.35;;
38609;SDS011;24367;51.640;9.566;2022-12-07T08:37:44;6.32;;;1.30;;
38609;SDS011;24367;51.640;9.566;2022-12-07T08:40:11;3.92;;;1.55;;
38609;SDS011;24367;51.640;9.566;2022-12-07T08:42:40;8.82;;;1.30;;
38609;SDS011;24367;51.640;9.566;2022-12-07T08:45:08;2.95;;;1.17;;
38609;SDS011;24367;51.640;9.566;2022-12-07T08:47:37;7.05;;;1.40;;
38609;SDS011;24367;51.640;9.566;2022-12-07T08:50:07;7.80;;;1.48;;
38609;SDS011;24367;51.640;9.566;2022-12-07T08:52:34;3.88;;;1.40;;
38609;SDS011;24367;51.640;9.566;2022-12-07T08:55:03;3.15;;;1.20;;
38609;SDS011;24367;51.640;9.566;2022-12-07T08:57:31;3.95;;;1.48;;
38609;SDS011;24367;51.640;9.566;2022-12-07T08:59:59;5.55;;;1.42;;
38609;SDS011;24367;51.640;9.566;2022-12-07T09:02:26;5.43;;;1.10;;
38609;SDS011;24367;51.640;9.566;2022-12-07T09:04:52;3.10;;;1.20;;
38609;SDS011;24367;51.640;9.566;2022-12-07T09:07:19;5.57;;;1.13;;
38609;SDS011;24367;51.640;9.566;2022-12-07T09:09:45;4.47;;;1.17;;
38609;SDS011;24367;51.640;9.566;2022-12-07T09:12:13;4.95;;;1.30;;
38609;SDS011;24367;51.640;9.566;2022-12-07T09:14:40;4.05;;;1.38;;
38609;SDS011;24367;51.640;9.566;2022-12-07T09:17:07;3.75;;;1.05;;
38609;SDS011;24367;51.640;9.566;2022-12-07T09:19:34;5.82;;;1.33;;
38609;SDS011;24367;51.640;9.566;2022-12-07T09:22:00;6.25;;;1.23;;
38609;SDS011;24367;51.640;9.566;2022-12-07T09:24:27;5.18;;;1.48;;
38609;SDS011;24367;51.640;9.566;2022-12-07T09:26:54;2.03;;;1.10;;
38609;SDS011;24367;51.640;9.566;2022-12-07T09:29:22;13.07;;;1.52;;
38609;SDS011;24367;51.640;9.566;2022-12-07T09:31:48;2.60;;;1.10;;
38609;SDS011;24367;51.640;9.566;2022-12-07T09:34:15;2.80;;;0.93;;
38609;SDS011;24367;51.640;9.566;2022-12-07T09:36:42;3.15;;;0.95;;
38609;SDS011;24367;51.640;9.566;2022-12-07T09:39:09;3.13;;;1.10;;
38609;SDS011;24367;51.640;9.566;2022-12-07T09:41:36;3.45;;;1.10;;
38609;SDS011;24367;51.640;9.566;2022-12-07T09:44:05;3.25;;;1.20;;
38609;SDS011;24367;51.640;9.566;2022-12-07T09:46:34;4.47;;;1.42;;
38609;SDS011;24367;51.640;9.566;2022-12-07T09:49:02;16.30;;;2.13;;
38609;SDS011;24367;51.640;9.566;2022-12-07T09:51:29;9.93;;;1.85;;
38609;SDS011;24367;51.640;9.566;2022-12-07T09:53:56;9.10;;;1.48;;
38609;SDS011;24367;51.640;9.566;2022-12-07T09:56:23;4.45;;;1.45;;
38609;SDS011;24367;51.640;9.566;2022-12-07T09:58:58;4.00;;;1.30;;
38609;SDS011;24367;51.640;9.566;2022-12-07T10:01:27;3.40;;;1.38;;
38609;SDS011;24367;51.640;9.566;2022-12-07T10:03:59;6.72;;;1.42;;
38609;SDS011;24367;51.640;9.566;2022-12-07T10:06:27;5.18;;;1.70;;
38609;SDS011;24367;51.640;9.566;2022-12-07T10:08:54;3.83;;;1.17;;
38609;SDS011;24367;51.640;9.566;2022-12-07T10:11:21;3.80;;;1.35;;
38609;SDS011;24367;51.640;9.566;2022-12-07T10:13:48;5.07;;;1.42;;
38609;SDS011;24367;51.640;9.566;2022-12-07T10:16:31;3.55;;;1.08;;
38609;SDS011;24367;51.640;9.566;2022-12-07T10:22:02;3.88;;;1.27;;
38609;SDS011;24367;51.640;9.566;2022-12-07T10:24:31;4.20;;;1.15;;
38609;SDS011;24367;51.640;9.566;2022-12-07T10:26:58;4.53;;;1.10;;
38609;SDS011;24367;51.640;9.566;2022-12-07T10:29:27;3.80;;;1.17;;
38609;SDS011;24367;51.640;9.566;2022-12-07T10:31:56;5.00;;;1.10;;
38609;SDS011;24367;51.640;9.566;2022-12-07T10:34:24;3.67;;;1.00;;
38609;SDS011;24367;51.640;9.566;2022-12-07T10:36:52;2.97;;;1.13;;
38609;SDS011;24367;51.640;9.566;2022-12-07T10:39:21;3.05;;;1.08;;
38609;SDS011;24367;51.640;9.566;2022-12-07T10:41:55;2.88;;;1.10;;
38609;SDS011;24367;51.640;9.566;2022-12-07T10:44:24;3.22;;;1.25;;
38609;SDS011;24367;51.640;9.566;2022-12-07T10:46:54;2.90;;;1.10;;
38609;SDS011;24367;51.640;9.566;2022-12-07T10:49:37;5.50;;;1.23;;
38609;SDS011;24367;51.640;9.566;2022-12-07T10:52:14;5.40;;;1.30;;
38609;SDS011;24367;51.640;9.566;2022-12-07T10:54:48;2.38;;;1.10;;
38609;SDS011;24367;51.640;9.566;2022-12-07T10:57:21;4.65;;;1.45;;
38609;SDS011;24367;51.640;9.566;2022-12-07T10:59:53;4.97;;;1.30;;
38609;SDS011;24367;51.640;9.566;2022-12-07T11:02:50;3.70;;;1.05;;
38609;SDS011;24367;51.640;9.566;2022-12-07T11:05:26;4.00;;;1.27;;
38609;SDS011;24367;51.640;9.566;2022-12-07T11:07:58;3.28;;;1.17;;
38609;SDS011;24367;51.640;9.566;2022-12-07T11:10:31;6.55;;;1.10;;
38609;SDS011;24367;51.640;9.566;2022-12-07T11:13:11;5.07;;;1.35;;
38609;SDS011;24367;51.640;9.566;2022-12-07T11:15:49;3.15;;;1.10;;
38609;SDS011;24367;51.640;9.566;2022-12-07T11:18:22;3.53;;;1.40;;
38609;SDS011;24367;51.640;9.566;2022-12-07T11:20:52;2.97;;;1.30;;
38609;SDS011;24367;51.640;9.566;2022-12-07T11:23:24;2.70;;;1.10;;
38609;SDS011;24367;51.640;9.566;2022-12-07T11:26:01;4.25;;;1.40;;
38609;SDS011;24367;51.640;9.566;2022-12-07T11:28:37;13.07;;;1.70;;
38609;SDS011;24367;51.640;9.566;2022-12-07T11:31:12;6.05;;;1.23;;
38609;SDS011;24367;51.640;9.566;2022-12-07T11:33:43;3.90;;;1.30;;
38609;SDS011;24367;51.640;9.566;2022-12-07T11:36:17;5.43;;;1.30;;
38609;SDS011;24367;51.640;9.566;2022-12-07T11:38:57;3.00;;;1.30;;
38609;SDS011;24367;51.640;9.566;2022-12-07T11:41:28;3.85;;;1.00;;
38609;SDS011;24367;51.640;9.566;2022-12-07T11:43:58;2.50;;;1.13;;
38609;SDS011;24367;51.640;9.566;2022-12-07T11:46:27;3.97;;;1.20;;
38609;SDS011;24367;51.640;9.566;2022-12-07T11:48:58;3.58;;;1.20;;
38609;SDS011;24367;51.640;9.566;2022-12-07T11:51:29;5.05;;;1.48;;
38609;SDS011;24367;51.640;9.566;2022-12-07T11:54:00;4.75;;;1.10;;
38609;SDS011;24367;51.640;9.566;2022-12-07T11:56:30;3.35;;;1.30;;
38609;SDS011;24367;51.640;9.566;2022-12-07T11:58:57;2.78;;;1.10;;
38609;SDS011;24367;51.640;9.566;2022-12-07T12:01:35;6.18;;;1.65;;
38609;SDS011;24367;51.640;9.566;2022-12-07T12:04:13;4.35;;;1.65;;
38609;SDS011;24367;51.640;9.566;2022-12-07T12:06:45;4.50;;;1.20;;
38609;SDS011;24367;51.640;9.566;2022-12-07T12:09:12;3.13;;;1.38;;
38609;SDS011;24367;51.640;9.566;2022-12-07T12:11:50;3.05;;;1.35;;
38609;SDS011;24367;51.640;9.566;2022-12-07T12:14:31;2.72;;;1.02;;
38609;SDS011;24367;51.640;9.566;2022-12-07T12:17:10;2.40;;;1.10;;
38609;SDS011;24367;51.640;9.566;2022-12-07T12:19:59;5.40;;;1.15;;
38609;SDS011;24367;51.640;9.566;2022-12-07T12:22:29;3.33;;;1.33;;
38609;SDS011;24367;51.640;9.566;2022-12-07T12:24:59;4.25;;;1.13;;
38609;SDS011;24367;51.640;9.566;2022-12-07T12:27:29;3.45;;;1.20;;
38609;SDS011;24367;51.640;9.566;2022-12-07T12:29:57;3.47;;;1.33;;
38609;SDS011;24367;51.640;9.566;2022-12-07T12:32:29;7.57;;;2.85;;
38609;SDS011;24367;51.640;9.566;2022-12-07T12:35:17;12.45;;;2.25;;
38609;SDS011;24367;51.640;9.566;2022-12-07T12:37:48;11.98;;;2.58;;
38609;SDS011;24367;51.640;9.566;2022-12-07T12:43:21;19.27;;;2.20;;
38609;SDS011;24367;51.640;9.566;2022-12-07T12:49:30;11.35;;;1.70;;
38609;SDS011;24367;51.640;9.566;2022-12-07T12:52:00;6.30;;;1.58;;
38609;SDS011;24367;51.640;9.566;2022-12-07T12:54:29;6.68;;;1.90;;
38609;SDS011;24367;51.640;9.566;2022-12-07T12:56:58;15.35;;;1.98;;
38609;SDS011;24367;51.640;9.566;2022-12-07T12:59:28;9.45;;;1.85;;
38609;SDS011;24367;51.640;9.566;2022-12-07T13:01:56;7.65;;;1.52;;
38609;SDS011;24367;51.640;9.566;2022-12-07T13:10:31;13.33;;;2.67;;
38609;SDS011;24367;51.640;9.566;2022-12-07T13:13:03;7.68;;;1.45;;
38609;SDS011;24367;51.640;9.566;2022-12-07T13:15:33;10.90;;;1.33;;
38609;SDS011;24367;51.640;9.566;2022-12-07T13:18:02;11.80;;;2.03;;
38609;SDS011;24367;51.640;9.566;2022-12-07T13:20:44;8.57;;;1.75;;
38609;SDS011;24367;51.640;9.566;2022-12-07T13:23:12;4.35;;;0.98;;
38609;SDS011;24367;51.640;9.566;2022-12-07T13:25:49;5.68;;;1.50;;
38609;SDS011;24367;51.640;9.566;2022-12-07T13:28:20;5.70;;;1.25;;
38609;SDS011;24367;51.640;9.566;2022-12-07T13:31:00;6.32;;;2.00;;
38609;SDS011;24367;51.640;9.566;2022-12-07T13:33:32;6.72;;;1.83;;
38609;SDS011;24367;51.640;9.566;2022-12-07T13:36:00;22.30;;;2.03;;
38609;SDS011;24367;51.640;9.566;2022-12-07T13:38:28;11.45;;;2.10;;
38609;SDS011;24367;51.640;9.566;2022-12-07T13:41:03;5.63;;;1.70;;
38609;SDS011;24367;51.640;9.566;2022-12-07T13:43:30;5.05;;;1.67;;
38609;SDS011;24367;51.640;9.566;2022-12-07T13:45:57;10.73;;;1.50;;
38609;SDS011;24367;51.640;9.566;2022-12-07T13:48:28;5.55;;;1.50;;
38609;SDS011;24367;51.640;9.566;2022-12-07T13:50:57;6.45;;;1.10;;
38609;SDS011;24367;51.640;9.566;2022-12-07T13:53:26;6.18;;;1.70;;
38609;SDS011;24367;51.640;9.566;2022-12-07T13:55:55;6.07;;;1.50;;
38609;SDS011;24367;51.640;9.566;2022-12-07T13:58:22;6.90;;;1.75;;
38609;SDS011;24367;51.640;9.566;2022-12-07T14:00:49;7.90;;;1.42;;
38609;SDS011;24367;51.640;9.566;2022-12-07T14:06:22;5.38;;;1.70;;
38609;SDS011;24367;51.640;9.566;2022-12-07T14:09:05;4.47;;;1.42;;
38609;SDS011;24367;51.640;9.566;2022-12-07T14:11:35;5.68;;;1.58;;
38609;SDS011;24367;51.640;9.566;2022-12-07T14:14:02;5.07;;;1.63;;
38609;SDS011;24367;51.640;9.566;2022-12-07T14:16:30;5.25;;;1.30;;
38609;SDS011;24367;51.640;9.566;2022-12-07T14:18:59;7.07;;;1.38;;
38609;SDS011;24367;51.640;9.566;2022-12-07T14:21:26;12.30;;;1.42;;
38609;SDS011;24367;51.640;9.566;2022-12-07T14:24:08;3.97;;;1.25;;
38609;SDS011;24367;51.640;9.566;2022-12-07T14:26:42;4.30;;;1.20;;
38609;SDS011;24367;51.640;9.566;2022-12-07T14:29:19;5.47;;;1.90;;
38609;SDS011;24367;51.640;9.566;2022-12-07T14:31:47;5.05;;;1.40;;
38609;SDS011;24367;51.640;9.566;2022-12-07T14:34:15;6.32;;;1.83;;
38609;SDS011;24367;51.640;9.566;2022-12-07T14:36:42;6.13;;;1.70;;
38609;SDS011;24367;51.640;9.566;2022-12-07T14:39:09;5.10;;;1.58;;
38609;SDS011;24367;51.640;9.566;2022-12-07T14:41:35;4.43;;;1.58;;
38609;SDS011;24367;51.640;9.566;2022-12-07T14:44:17;4.13;;;1.40;;
38609;SDS011;24367;51.640;9.566;2022-12-07T14:46:44;3.20;;;1.40;;
38609;SDS011;24367;51.640;9.566;2022-12-07T14:49:11;3.92;;;1.70;;
38609;SDS011;24367;51.640;9.566;2022-12-07T14:51:39;5.72;;;1.23;;
38609;SDS011;24367;51.640;9.566;2022-12-07T14:54:07;5.10;;;1.50;;
38609;SDS011;24367;51.640;9.566;2022-12-07T14:56:39;4.10;;;1.30;;
38609;SDS011;24367;51.640;9.566;2022-12-07T14:59:06;3.60;;;1.17;;
38609;SDS011;24367;51.640;9.566;2022-12-07T15:01:33;3.60;;;1.50;;
38609;SDS011;24367;51.640;9.566;2022-12-07T15:04:00;15.23;;;2.17;;
38609;SDS011;24367;51.640;9.566;2022-12-07T15:06:27;5.05;;;1.92;;
38609;SDS011;24367;51.640;9.566;2022-12-07T15:08:55;4.18;;;1.55;;
38609;SDS011;24367;51.640;9.566;2022-12-07T15:11:21;5.07;;;1.50;;
38609;SDS011;24367;51.640;9.566;2022-12-07T15:13:48;6.53;;;1.60;;
38609;SDS011;24367;51.640;9.566;2022-12-07T15:16:32;9.80;;;2.03;;
38609;SDS011;24367;51.640;9.566;2022-12-07T15:18:58;7.75;;;1.73;;
38609;SDS011;24367;51.640;9.566;2022-12-07T15:21:25;6.57;;;1.58;;
38609;SDS011;24367;51.640;9.566;2022-12-07T15:23:52;6.18;;;1.50;;
38609;SDS011;24367;51.640;9.566;2022-12-07T15:26:20;7.85;;;1.83;;